Time;durP1;ratioP1;P1;durP2;ratioP2;P2;SDS_P1;SDS_P2;PMS_P1;PMS_P2;Temp;Humidity;BMP_temperature;BMP_pressure;BME280_temperature;BME280_humidity;BME280_pressure;Samples;Min_cycle;Max_cycle;Signal;HPM_P1;HPM_P2
2020/12/13 00:01:41;;;;;;;83.75;36.28;;;4.00;99.90;;;;;;5039596;28;20120;-46
2020/12/13 00:04:06;;;;;;;89.85;39.90;;;4.00;99.90;;;;;;5038469;28;20176;-48
2020/12/13 00:06:33;;;;;;;88.63;36.83;;;4.00;99.90;;;;;;5036650;28;20028;-48
2020/12/13 00:08:59;;;;;;;91.45;39.08;;;4.00;99.90;;;;;;5038560;28;20391;-46
2020/12/13 00:11:26;;;;;;;88.30;39.38;;;4.00;99.90;;;;;;5037773;28;20662;-45
2020/12/13 00:13:52;;;;;;;87.20;38.00;;;4.00;99.90;;;;;;5029674;28;20026;-46
2020/12/13 00:16:17;;;;;;;86.40;37.65;;;4.00;99.90;;;;;;5027622;28;20079;-44
2020/12/13 00:18:46;;;;;;;82.10;36.80;;;3.90;99.90;;;;;;5029265;28;20078;-45
2020/12/13 00:21:13;;;;;;;87.28;39.10;;;4.00;99.90;;;;;;5039439;28;20232;-45
2020/12/13 00:23:39;;;;;;;91.03;37.47;;;3.90;99.90;;;;;;5049541;28;20029;-46
2020/12/13 00:26:09;;;;;;;86.13;37.60;;;3.90;99.90;;;;;;5048662;28;20601;-47
2020/12/13 00:28:35;;;;;;;94.57;37.10;;;3.90;99.90;;;;;;5049358;28;20026;-46
2020/12/13 00:31:02;;;;;;;92.75;39.30;;;3.90;99.90;;;;;;5049157;28;20032;-45
2020/12/13 00:33:28;;;;;;;82.55;36.33;;;3.90;99.90;;;;;;5049142;28;20021;-46
2020/12/13 00:35:53;;;;;;;86.85;37.50;;;3.90;99.90;;;;;;5048048;28;20032;-46
2020/12/13 00:38:20;;;;;;;91.80;38.33;;;3.90;99.90;;;;;;5048801;28;20398;-48
2020/12/13 00:40:49;;;;;;;83.70;35.60;;;3.90;99.90;;;;;;5049121;28;20033;-46
2020/12/13 00:43:15;;;;;;;91.13;40.17;;;3.90;99.90;;;;;;5047762;28;20500;-47
2020/12/13 00:45:40;;;;;;;84.35;38.58;;;3.90;99.90;;;;;;5037288;28;20026;-45
2020/12/13 00:48:06;;;;;;;84.65;37.60;;;3.90;99.90;;;;;;5028833;28;20033;-46
2020/12/13 00:50:33;;;;;;;94.18;39.53;;;3.90;99.90;;;;;;5028087;28;20071;-45
2020/12/13 00:52:59;;;;;;;99.00;40.33;;;3.90;99.90;;;;;;5029001;28;20104;-44
2020/12/13 00:55:24;;;;;;;81.95;36.05;;;3.90;99.90;;;;;;5026245;28;20567;-46
2020/12/13 00:57:50;;;;;;;92.57;39.28;;;3.90;99.90;;;;;;5028723;28;20438;-47
2020/12/13 01:00:15;;;;;;;90.65;38.10;;;3.90;99.90;;;;;;5026726;28;20029;-45
2020/12/13 01:02:41;;;;;;;85.53;36.85;;;3.90;99.90;;;;;;5028298;28;20025;-45
2020/12/13 01:05:06;;;;;;;84.40;37.80;;;3.90;99.90;;;;;;5027768;28;20367;-44
2020/12/13 01:07:32;;;;;;;85.90;36.00;;;3.90;99.90;;;;;;5028086;28;20109;-45
2020/12/13 01:09:57;;;;;;;84.90;37.90;;;3.90;99.90;;;;;;5028492;28;20056;-45
2020/12/13 01:12:23;;;;;;;86.38;37.90;;;3.90;99.90;;;;;;5028052;28;20109;-45
2020/12/13 01:14:48;;;;;;;97.88;40.65;;;3.90;99.90;;;;;;5027436;28;20040;-46
2020/12/13 01:17:14;;;;;;;87.85;36.25;;;3.90;99.90;;;;;;5028268;28;20326;-45
2020/12/13 01:19:39;;;;;;;104.38;42.55;;;3.90;99.90;;;;;;5027908;28;20108;-46
2020/12/13 01:22:06;;;;;;;93.07;41.03;;;3.90;99.90;;;;;;5035788;28;20029;-46
2020/12/13 01:24:32;;;;;;;89.00;37.67;;;3.90;99.90;;;;;;5046920;28;20069;-45
2020/12/13 01:26:57;;;;;;;88.38;38.28;;;3.90;99.90;;;;;;5048443;28;20151;-44
2020/12/13 01:29:23;;;;;;;89.53;39.08;;;3.90;99.90;;;;;;5047903;28;20129;-47
2020/12/13 01:31:48;;;;;;;96.43;40.08;;;3.90;99.90;;;;;;5047834;28;20040;-46
2020/12/13 01:34:14;;;;;;;98.15;42.53;;;3.90;99.90;;;;;;5047629;28;20104;-45
2020/12/13 01:36:39;;;;;;;90.85;38.95;;;3.90;99.90;;;;;;5047410;28;20035;-45
2020/12/13 01:39:05;;;;;;;92.07;39.72;;;3.90;99.90;;;;;;5047971;28;20397;-46
2020/12/13 01:41:31;;;;;;;85.00;37.17;;;3.90;99.90;;;;;;5046443;28;20601;-45
2020/12/13 01:43:59;;;;;;;77.72;37.55;;;3.90;99.90;;;;;;5048082;28;20544;-46
2020/12/13 01:46:26;;;;;;;91.10;37.78;;;3.80;99.90;;;;;;5047438;28;20029;-49
2020/12/13 01:48:59;;;;;;;91.97;40.28;;;3.90;99.90;;;;;;5048103;28;20035;-47
2020/12/13 01:51:43;;;;;;;99.55;40.38;;;3.80;99.90;;;;;;5047553;28;20025;-47
2020/12/13 01:54:12;;;;;;;95.32;39.47;;;3.80;99.90;;;;;;5047754;28;20013;-45
2020/12/13 01:56:45;;;;;;;105.65;42.38;;;3.80;99.90;;;;;;5047000;28;20469;-48
2020/12/13 01:59:13;;;;;;;92.43;37.50;;;3.80;99.90;;;;;;5047428;28;20052;-47
2020/12/13 02:01:39;;;;;;;98.80;38.95;;;3.80;99.90;;;;;;5047308;28;20029;-47
2020/12/13 02:04:07;;;;;;;90.13;38.00;;;3.80;99.90;;;;;;5047213;28;20481;-46
2020/12/13 02:06:34;;;;;;;85.30;38.65;;;3.80;99.90;;;;;;5047149;28;20047;-47
2020/12/13 02:09:00;;;;;;;99.72;39.72;;;3.80;99.90;;;;;;5047825;28;20091;-47
2020/12/13 02:11:25;;;;;;;88.97;38.22;;;3.80;99.90;;;;;;5048852;28;20029;-46
2020/12/13 02:13:51;;;;;;;86.10;36.55;;;3.80;99.90;;;;;;5044654;28;20029;-50
2020/12/13 02:16:18;;;;;;;94.20;38.80;;;3.80;99.90;;;;;;5036215;28;20104;-48
2020/12/13 02:18:45;;;;;;;90.50;38.90;;;3.90;99.90;;;;;;5033943;28;20140;-50
2020/12/13 02:21:11;;;;;;;93.75;37.90;;;3.80;99.90;;;;;;5033262;28;20061;-47
2020/12/13 02:23:41;;;;;;;92.07;39.80;;;3.80;99.90;;;;;;5045127;28;20025;-47
2020/12/13 02:26:09;;;;;;;100.40;41.60;;;3.90;99.90;;;;;;5052980;28;20025;-48
2020/12/13 02:28:35;;;;;;;93.00;39.40;;;3.90;99.90;;;;;;5053973;28;20025;-47
2020/12/13 02:31:05;;;;;;;92.20;38.72;;;3.80;99.90;;;;;;5053459;28;20071;-47
2020/12/13 02:33:32;;;;;;;91.18;38.85;;;3.90;99.90;;;;;;5053863;28;20111;-47
2020/12/13 02:35:58;;;;;;;90.95;40.17;;;3.90;99.90;;;;;;5053159;28;20029;-48
2020/12/13 02:38:25;;;;;;;101.22;38.72;;;3.90;99.90;;;;;;5054261;28;20091;-47
2020/12/13 02:40:50;;;;;;;90.32;39.55;;;3.80;99.90;;;;;;5054063;28;20406;-48
2020/12/13 02:43:16;;;;;;;93.15;38.70;;;3.90;99.90;;;;;;5053959;28;20021;-49
2020/12/13 02:45:41;;;;;;;94.88;39.97;;;3.90;99.90;;;;;;5052929;28;20585;-48
2020/12/13 02:48:07;;;;;;;89.03;36.75;;;3.90;99.90;;;;;;5054021;28;20152;-48
2020/12/13 02:50:32;;;;;;;97.97;40.97;;;3.90;99.90;;;;;;5053018;28;20070;-45
2020/12/13 02:52:59;;;;;;;83.22;37.33;;;3.90;99.90;;;;;;5053658;28;20025;-45
2020/12/13 02:55:24;;;;;;;88.60;37.58;;;3.90;99.90;;;;;;5053093;28;20104;-48
2020/12/13 02:57:50;;;;;;;84.10;38.10;;;3.90;99.90;;;;;;5053501;28;20607;-46
2020/12/13 03:00:16;;;;;;;82.95;36.65;;;3.90;99.90;;;;;;5053041;28;20078;-49
2020/12/13 03:02:42;;;;;;;92.75;38.58;;;3.80;99.90;;;;;;5053357;28;20119;-46
2020/12/13 03:05:07;;;;;;;84.78;36.08;;;3.90;99.90;;;;;;5052615;28;20032;-46
2020/12/13 03:07:33;;;;;;;88.95;36.72;;;3.90;99.90;;;;;;5052345;28;20036;-46
2020/12/13 03:09:58;;;;;;;91.20;39.53;;;3.90;99.90;;;;;;5053986;28;20025;-47
2020/12/13 03:12:25;;;;;;;85.97;35.95;;;3.90;99.90;;;;;;5053532;28;20055;-46
2020/12/13 03:14:54;;;;;;;86.10;39.55;;;3.90;99.90;;;;;;5053320;28;20009;-46
2020/12/13 03:17:20;;;;;;;90.07;37.20;;;3.90;99.90;;;;;;5052385;28;20055;-46
2020/12/13 03:19:45;;;;;;;83.20;37.92;;;3.90;99.90;;;;;;5053274;28;20024;-46
2020/12/13 03:22:11;;;;;;;94.10;39.67;;;3.90;99.90;;;;;;5053661;28;20086;-47
2020/12/13 03:24:36;;;;;;;86.13;37.78;;;3.80;99.90;;;;;;5041614;28;20037;-48
2020/12/13 03:27:02;;;;;;;93.47;39.28;;;3.80;99.90;;;;;;5030263;28;20158;-48
2020/12/13 03:29:27;;;;;;;84.07;36.83;;;3.80;99.90;;;;;;5030072;28;20033;-48
2020/12/13 03:31:53;;;;;;;78.57;35.33;;;3.80;99.90;;;;;;5029715;28;20116;-49
2020/12/13 03:34:18;;;;;;;84.50;39.75;;;3.80;99.90;;;;;;5029971;28;20021;-48
2020/12/13 03:36:44;;;;;;;92.88;39.13;;;3.90;99.90;;;;;;5030176;28;20029;-49
2020/12/13 03:39:09;;;;;;;95.13;37.80;;;3.90;99.90;;;;;;5030392;28;20498;-49
2020/12/13 03:41:35;;;;;;;83.53;35.97;;;3.90;99.90;;;;;;5030315;28;20031;-48
2020/12/13 03:44:00;;;;;;;81.10;36.58;;;3.90;99.90;;;;;;5030077;28;20445;-48
2020/12/13 03:46:26;;;;;;;96.88;38.25;;;3.90;99.90;;;;;;5029821;28;20068;-49
2020/12/13 03:48:51;;;;;;;81.90;36.15;;;3.90;99.90;;;;;;5029152;28;20033;-48
2020/12/13 03:51:16;;;;;;;88.93;37.08;;;3.90;99.90;;;;;;5029549;28;20029;-48
2020/12/13 03:53:42;;;;;;;82.10;34.85;;;3.90;99.90;;;;;;5029875;28;20140;-47
2020/12/13 03:56:07;;;;;;;80.88;34.25;;;3.90;99.90;;;;;;5029402;28;20077;-47
2020/12/13 03:58:33;;;;;;;90.15;35.72;;;3.90;99.90;;;;;;5029327;28;20159;-47
2020/12/13 04:00:58;;;;;;;91.13;36.75;;;3.90;99.90;;;;;;5029870;28;20029;-48
2020/12/13 04:03:24;;;;;;;81.13;34.92;;;3.90;99.90;;;;;;5029578;28;20452;-48
2020/12/13 04:05:49;;;;;;;89.38;35.80;;;3.90;99.90;;;;;;5028276;28;20028;-48
2020/12/13 04:08:15;;;;;;;83.88;35.88;;;3.90;99.90;;;;;;5029248;28;20040;-47
2020/12/13 04:10:40;;;;;;;79.00;35.13;;;3.90;99.90;;;;;;5029472;28;20048;-47
2020/12/13 04:13:06;;;;;;;84.07;34.65;;;3.90;99.90;;;;;;5029739;28;20056;-47
2020/12/13 04:15:31;;;;;;;95.43;37.35;;;3.90;99.90;;;;;;5026998;28;20120;-49
2020/12/13 04:17:57;;;;;;;74.53;34.17;;;3.90;99.90;;;;;;5029570;28;20044;-47
2020/12/13 04:20:22;;;;;;;85.15;35.22;;;3.90;99.90;;;;;;5028808;28;20033;-48
2020/12/13 04:22:48;;;;;;;83.90;34.10;;;3.90;99.90;;;;;;5029290;28;20032;-47
2020/12/13 04:25:13;;;;;;;89.88;36.45;;;3.80;99.90;;;;;;5032358;28;20060;-48
2020/12/13 04:27:39;;;;;;;80.65;34.45;;;3.80;99.90;;;;;;5045365;28;20040;-48
2020/12/13 04:30:05;;;;;;;77.90;35.45;;;3.80;99.90;;;;;;5049291;28;20128;-48
2020/12/13 04:32:31;;;;;;;83.65;35.00;;;3.80;99.90;;;;;;5048630;28;20055;-48
2020/12/13 04:34:57;;;;;;;80.10;35.10;;;3.80;99.90;;;;;;5047756;28;20448;-48
2020/12/13 04:37:25;;;;;;;78.15;33.55;;;3.80;99.90;;;;;;5048897;28;20091;-47
2020/12/13 04:39:53;;;;;;;77.85;33.72;;;3.80;99.90;;;;;;5049008;28;20021;-47
2020/12/13 04:42:20;;;;;;;77.05;33.08;;;3.80;99.90;;;;;;5048681;28;20021;-51
2020/12/13 04:44:47;;;;;;;69.63;32.55;;;3.80;99.90;;;;;;5047063;28;20060;-46
2020/12/13 04:47:17;;;;;;;79.50;33.60;;;3.80;99.90;;;;;;5048649;28;20517;-47
2020/12/13 04:49:49;;;;;;;73.43;32.40;;;3.80;99.90;;;;;;5048804;28;20489;-48
2020/12/13 04:52:15;;;;;;;72.80;30.38;;;3.80;99.90;;;;;;5048114;28;20421;-48
2020/12/13 04:54:51;;;;;;;77.55;32.42;;;3.80;99.90;;;;;;5047805;28;20048;-47
2020/12/13 04:57:18;;;;;;;77.00;31.48;;;3.80;99.90;;;;;;5047268;28;20514;-48
2020/12/13 04:59:47;;;;;;;73.35;32.53;;;3.80;99.90;;;;;;5048458;28;20458;-49
2020/12/13 05:02:13;;;;;;;66.75;29.00;;;3.80;99.90;;;;;;5048330;28;20025;-47
2020/12/13 05:04:39;;;;;;;74.45;31.30;;;3.80;99.90;;;;;;5047708;28;20496;-48
2020/12/13 05:07:05;;;;;;;74.03;33.05;;;3.90;99.90;;;;;;5048368;28;20025;-48
2020/12/13 05:09:31;;;;;;;83.80;35.70;;;3.90;99.90;;;;;;5048166;28;20025;-47
2020/12/13 05:11:56;;;;;;;76.38;32.97;;;3.90;99.90;;;;;;5048305;28;20052;-46
2020/12/13 05:14:22;;;;;;;73.32;31.40;;;3.90;99.90;;;;;;5047586;28;20277;-47
2020/12/13 05:16:47;;;;;;;71.70;32.00;;;3.90;99.90;;;;;;5047158;28;20044;-47
2020/12/13 05:19:13;;;;;;;77.50;32.47;;;3.90;99.90;;;;;;5047996;28;20035;-49
2020/12/13 05:21:39;;;;;;;77.70;31.80;;;3.90;99.90;;;;;;5047713;28;20494;-48
2020/12/13 05:24:05;;;;;;;76.25;32.00;;;3.90;99.90;;;;;;5048013;28;20055;-47
2020/12/13 05:26:32;;;;;;;74.25;32.10;;;3.90;99.90;;;;;;5037097;28;20406;-47
2020/12/13 05:29:00;;;;;;;82.88;34.70;;;3.90;99.90;;;;;;5047826;28;20029;-49
2020/12/13 05:31:29;;;;;;;73.93;31.23;;;4.00;99.90;;;;;;5041347;28;20084;-47
2020/12/13 05:34:07;;;;;;;86.85;34.28;;;4.00;99.90;;;;;;5028172;28;20426;-47
2020/12/13 05:36:39;;;;;;;76.10;32.38;;;4.00;99.90;;;;;;5028606;28;20122;-46
2020/12/13 05:39:05;;;;;;;81.03;32.83;;;4.00;99.90;;;;;;5045170;28;20430;-48
2020/12/13 05:41:37;;;;;;;77.72;32.22;;;4.00;99.90;;;;;;5047982;28;20033;-48
2020/12/13 05:46:58;;;;;;;72.53;32.03;;;4.00;99.90;;;;;;5027933;28;20032;-47
2020/12/13 05:51:53;;;;;;;73.07;32.17;;;4.00;99.90;;;;;;5027723;28;20112;-46
2020/12/13 05:54:25;;;;;;;76.97;34.17;;;4.00;99.90;;;;;;5032956;28;20113;-47
2020/12/13 05:56:57;;;;;;;72.20;30.83;;;4.00;99.90;;;;;;5027992;28;20398;-47
2020/12/13 05:59:30;;;;;;;87.90;34.67;;;4.00;99.90;;;;;;5046743;28;20033;-48
2020/12/13 06:01:58;;;;;;;85.60;35.25;;;4.00;99.90;;;;;;5048634;28;20033;-47
2020/12/13 06:04:32;;;;;;;79.03;33.90;;;4.10;99.90;;;;;;5048726;28;20071;-48
2020/12/13 06:07:02;;;;;;;81.90;32.85;;;4.10;99.90;;;;;;5047778;28;20090;-47
2020/12/13 06:09:33;;;;;;;76.07;31.58;;;4.10;99.90;;;;;;5048960;28;20022;-47
2020/12/13 06:12:01;;;;;;;74.93;32.63;;;4.10;99.90;;;;;;5049070;28;20044;-50
2020/12/13 06:14:27;;;;;;;72.65;32.00;;;4.10;99.90;;;;;;5048140;28;20071;-49
2020/12/13 06:16:55;;;;;;;75.60;31.73;;;4.10;99.90;;;;;;5029682;28;20516;-48
2020/12/13 06:19:23;;;;;;;67.63;29.45;;;4.10;99.90;;;;;;5028014;28;20029;-48
2020/12/13 06:21:50;;;;;;;74.95;31.27;;;4.10;99.90;;;;;;5028715;28;20137;-49
2020/12/13 06:24:16;;;;;;;76.93;31.75;;;4.10;99.90;;;;;;5036839;28;20029;-47
2020/12/13 06:26:42;;;;;;;85.15;33.33;;;4.10;99.90;;;;;;5037634;28;20404;-48
2020/12/13 06:29:08;;;;;;;79.65;31.90;;;4.10;99.90;;;;;;5038188;28;20568;-47
2020/12/13 06:31:38;;;;;;;80.32;30.70;;;4.10;99.90;;;;;;5036689;28;20726;-46
2020/12/13 06:34:05;;;;;;;76.28;33.05;;;4.10;99.90;;;;;;5035791;28;20024;-47
2020/12/13 06:36:32;;;;;;;76.05;33.40;;;4.10;99.90;;;;;;5035064;28;20110;-48
2020/12/13 06:38:58;;;;;;;70.50;29.88;;;4.10;99.90;;;;;;5036176;28;20159;-48
2020/12/13 06:41:28;;;;;;;67.75;29.80;;;4.10;99.90;;;;;;5038991;28;20115;-47
2020/12/13 06:43:54;;;;;;;78.22;31.27;;;4.10;99.90;;;;;;5038250;28;20393;-46
2020/12/13 06:46:20;;;;;;;82.47;35.70;;;4.10;99.90;;;;;;5038368;28;20032;-47
2020/12/13 06:48:46;;;;;;;85.25;33.20;;;4.10;99.90;;;;;;5039076;28;20579;-48
2020/12/13 06:51:34;;;;;;;84.68;34.65;;;4.10;99.90;;;;;;5036127;28;20104;-47
2020/12/13 06:54:01;;;;;;;83.60;32.20;;;4.10;99.90;;;;;;5036210;28;20024;-49
2020/12/13 06:56:28;;;;;;;92.07;34.92;;;4.10;99.90;;;;;;5038464;28;20024;-46
2020/12/13 06:58:56;;;;;;;84.93;34.47;;;4.10;99.90;;;;;;5037597;28;20055;-49
2020/12/13 07:01:39;;;;;;;88.38;32.92;;;4.10;99.90;;;;;;5032919;28;20036;-46
2020/12/13 07:04:23;;;;;;;76.20;32.40;;;4.10;99.90;;;;;;5031965;28;20052;-47
2020/12/13 07:07:35;;;;;;;81.50;32.00;;;4.10;99.90;;;;;;5031471;28;20055;-47
2020/12/13 07:09:42;;;;;;;90.97;34.72;;;4.10;99.90;;;;;;5032098;28;20049;-49
2020/12/13 07:12:09;;;;;;;85.97;33.92;;;4.20;99.90;;;;;;5032284;28;20110;-48
2020/12/13 07:14:36;;;;;;;96.03;34.97;;;4.10;99.90;;;;;;5031895;28;20380;-46
2020/12/13 07:17:04;;;;;;;82.63;32.70;;;4.20;99.90;;;;;;5032807;28;20026;-46
2020/12/13 07:19:35;;;;;;;82.60;34.10;;;4.20;99.90;;;;;;5032320;28;20021;-45
2020/12/13 07:22:09;;;;;;;94.72;36.22;;;4.20;99.90;;;;;;5032373;28;20014;-46
2020/12/13 07:24:35;;;;;;;94.47;34.17;;;4.20;99.90;;;;;;5031695;28;20040;-47
2020/12/13 07:27:02;;;;;;;89.07;32.67;;;4.20;99.90;;;;;;5031989;28;20022;-46
2020/12/13 07:29:28;;;;;;;85.53;31.73;;;4.20;99.90;;;;;;5038884;28;20028;-44
2020/12/13 07:31:54;;;;;;;92.70;34.22;;;4.20;99.90;;;;;;5030339;28;20104;-45
2020/12/13 07:34:20;;;;;;;85.22;32.88;;;4.20;99.90;;;;;;5031818;28;20163;-45
2020/12/13 07:36:45;;;;;;;84.95;34.35;;;4.20;99.90;;;;;;5031063;28;20021;-44
2020/12/13 07:39:13;;;;;;;94.97;36.13;;;4.20;99.90;;;;;;5030567;28;20029;-44
2020/12/13 07:41:42;;;;;;;79.75;32.92;;;4.20;99.90;;;;;;5032041;28;20478;-44
2020/12/13 07:44:13;;;;;;;88.97;34.78;;;4.20;99.90;;;;;;5031312;28;20567;-44
2020/12/13 07:46:40;;;;;;;96.68;35.42;;;4.20;99.90;;;;;;5031754;28;20033;-45
2020/12/13 07:49:11;;;;;;;109.55;38.47;;;4.20;99.90;;;;;;5031941;28;20040;-46
2020/12/13 07:51:38;;;;;;;94.40;37.45;;;4.20;99.90;;;;;;5031554;28;20017;-45
2020/12/13 07:54:16;;;;;;;99.50;35.78;;;4.20;99.90;;;;;;5030680;28;20541;-46
2020/12/13 07:56:44;;;;;;;86.80;33.38;;;4.20;99.90;;;;;;5030767;28;20057;-45
2020/12/13 07:59:14;;;;;;;84.70;32.72;;;4.20;99.90;;;;;;5030549;28;20471;-45
2020/12/13 08:01:41;;;;;;;91.50;34.28;;;4.20;99.90;;;;;;5031103;28;20568;-46
2020/12/13 08:04:07;;;;;;;89.20;36.53;;;4.20;99.90;;;;;;5033664;28;20024;-44
2020/12/13 08:06:33;;;;;;;83.53;33.92;;;4.30;99.90;;;;;;5030215;28;20765;-46
2020/12/13 08:08:59;;;;;;;84.35;31.38;;;4.30;99.90;;;;;;5030678;28;20549;-45
2020/12/13 08:11:26;;;;;;;90.05;32.95;;;4.30;99.90;;;;;;5031061;28;20045;-47
2020/12/13 08:13:55;;;;;;;81.13;30.75;;;4.30;99.90;;;;;;5030279;28;20031;-50
2020/12/13 08:16:26;;;;;;;86.00;33.88;;;4.30;99.90;;;;;;5030310;28;20441;-47
2020/12/13 08:18:59;;;;;;;85.20;34.22;;;4.30;99.90;;;;;;5040480;28;20100;-45
2020/12/13 08:21:46;;;;;;;94.53;34.42;;;4.30;99.90;;;;;;5033185;28;20025;-45
2020/12/13 08:24:14;;;;;;;90.63;34.95;;;4.30;99.90;;;;;;5028695;28;20021;-44
2020/12/13 08:26:41;;;;;;;99.88;37.20;;;4.30;99.90;;;;;;5028776;28;20399;-45
2020/12/13 08:29:08;;;;;;;96.25;35.13;;;4.30;99.90;;;;;;5028838;28;20376;-45
2020/12/13 08:31:35;;;;;;;99.95;38.13;;;4.30;99.90;;;;;;5041618;28;20418;-47
2020/12/13 08:34:03;;;;;;;90.38;33.85;;;4.30;99.90;;;;;;5048793;28;20083;-46
2020/12/13 08:36:29;;;;;;;85.85;33.47;;;4.30;99.90;;;;;;5048853;28;20489;-45
2020/12/13 08:39:03;;;;;;;90.32;36.10;;;4.40;99.90;;;;;;5050333;28;20017;-50
2020/12/13 08:41:29;;;;;;;87.18;35.72;;;4.40;99.90;;;;;;5037834;28;20017;-49
2020/12/13 08:43:54;;;;;;;94.35;33.75;;;4.40;99.90;;;;;;5029256;28;20025;-48
2020/12/13 08:46:31;;;;;;;103.80;36.28;;;4.40;99.90;;;;;;5027429;28;20026;-46
2020/12/13 08:48:56;;;;;;;97.25;35.67;;;4.40;99.90;;;;;;5028768;28;20148;-46
2020/12/13 08:51:26;;;;;;;80.03;30.88;;;4.40;99.90;;;;;;5029000;28;20036;-52
2020/12/13 08:54:01;;;;;;;81.38;32.30;;;4.40;99.90;;;;;;5028215;28;20072;-46
2020/12/13 08:56:35;;;;;;;86.78;34.13;;;4.40;99.90;;;;;;5028017;28;20148;-45
2020/12/13 08:59:01;;;;;;;82.10;32.15;;;4.40;99.90;;;;;;5029174;28;20390;-46
2020/12/13 09:01:33;;;;;;;83.75;30.63;;;4.40;99.90;;;;;;5029322;28;20028;-44
2020/12/13 09:03:59;;;;;;;72.65;31.83;;;4.40;99.90;;;;;;5030196;28;20651;-45
2020/12/13 09:06:29;;;;;;;82.18;32.50;;;4.50;99.90;;;;;;5029528;28;20025;-44
2020/12/13 09:09:06;;;;;;;76.63;31.73;;;4.50;99.90;;;;;;5028579;28;20064;-45
2020/12/13 09:11:32;;;;;;;85.75;33.00;;;4.50;99.90;;;;;;5030322;28;20036;-45
2020/12/13 09:13:58;;;;;;;95.32;35.60;;;4.50;99.90;;;;;;5030323;28;20475;-45
2020/12/13 09:16:25;;;;;;;88.55;33.55;;;4.50;99.90;;;;;;5029731;28;20017;-44
2020/12/13 09:19:07;;;;;;;89.57;32.75;;;4.60;99.90;;;;;;5028898;28;20060;-45
2020/12/13 09:21:44;;;;;;;81.93;33.17;;;4.60;99.90;;;;;;5028117;28;20034;-45
2020/12/13 09:24:09;;;;;;;89.25;34.50;;;4.60;99.90;;;;;;5028975;28;20061;-49
2020/12/13 09:26:35;;;;;;;87.80;36.38;;;4.60;99.90;;;;;;5028459;28;20053;-44
2020/12/13 09:29:00;;;;;;;93.20;34.40;;;4.50;99.90;;;;;;5028751;28;20034;-45
2020/12/13 09:31:26;;;;;;;88.00;33.25;;;4.60;99.90;;;;;;5033464;28;20099;-45
2020/12/13 09:33:51;;;;;;;89.85;35.83;;;4.60;99.90;;;;;;5045671;28;20036;-44
2020/12/13 09:36:17;;;;;;;89.35;36.47;;;4.60;99.90;;;;;;5049344;28;20029;-45
2020/12/13 09:38:42;;;;;;;84.40;32.33;;;4.60;99.90;;;;;;5049992;28;20358;-46
2020/12/13 09:41:08;;;;;;;89.93;34.63;;;4.60;99.90;;;;;;5050359;28;20034;-45
2020/12/13 09:43:33;;;;;;;97.75;36.85;;;4.60;99.90;;;;;;5048916;28;20729;-45
2020/12/13 09:45:59;;;;;;;93.25;35.78;;;4.60;99.90;;;;;;5047442;28;20053;-44
2020/12/13 09:48:24;;;;;;;86.00;35.20;;;4.70;99.90;;;;;;5047197;28;20114;-45
2020/12/13 09:50:50;;;;;;;105.88;37.70;;;4.60;99.90;;;;;;5046991;28;20017;-44
2020/12/13 09:53:15;;;;;;;87.00;35.97;;;4.70;99.90;;;;;;5048102;28;20021;-46
2020/12/13 09:55:41;;;;;;;103.07;37.10;;;4.70;99.90;;;;;;5047577;28;20021;-45
2020/12/13 09:58:06;;;;;;;98.80;34.17;;;4.70;99.90;;;;;;5047725;28;20036;-46
2020/12/13 10:00:32;;;;;;;91.05;37.95;;;4.70;99.90;;;;;;5048003;28;20025;-45
2020/12/13 10:02:57;;;;;;;88.32;35.80;;;4.80;99.90;;;;;;5047913;28;20024;-46
2020/12/13 10:05:29;;;;;;;89.78;34.92;;;4.80;99.90;;;;;;5045770;28;20383;-44
2020/12/13 10:10:36;;;;;;;90.97;36.60;;;4.80;99.90;;;;;;5047624;28;20124;-45
2020/12/13 10:13:02;;;;;;;92.57;35.42;;;4.80;99.90;;;;;;5047857;28;20501;-45
2020/12/13 10:15:27;;;;;;;105.38;37.70;;;4.80;99.90;;;;;;5046541;28;20149;-46
2020/12/13 10:17:53;;;;;;;97.68;37.28;;;4.90;99.90;;;;;;5046921;28;20048;-43
2020/12/13 10:20:18;;;;;;;100.53;38.00;;;4.90;99.90;;;;;;5047499;28;20075;-44
2020/12/13 10:22:44;;;;;;;101.15;37.95;;;4.90;99.90;;;;;;5047673;28;20100;-46
2020/12/13 10:25:09;;;;;;;97.63;37.40;;;5.00;99.90;;;;;;5046926;28;20397;-45
2020/12/13 10:27:35;;;;;;;100.13;38.53;;;5.00;99.90;;;;;;5046923;28;20029;-45
2020/12/13 10:30:01;;;;;;;98.55;37.28;;;5.00;99.90;;;;;;5047323;28;20056;-45
2020/12/13 10:32:26;;;;;;;108.63;41.17;;;5.00;99.90;;;;;;5044030;28;20076;-43
2020/12/13 10:34:52;;;;;;;85.78;34.42;;;5.00;99.90;;;;;;5034429;28;20376;-44
2020/12/13 10:37:17;;;;;;;103.80;38.58;;;5.00;99.90;;;;;;5031551;28;20120;-46
2020/12/13 10:39:43;;;;;;;92.13;36.97;;;5.00;99.90;;;;;;5031322;28;20033;-43
2020/12/13 10:42:08;;;;;;;84.70;34.33;;;5.00;99.90;;;;;;5031610;28;20513;-45
2020/12/13 10:44:36;;;;;;;85.82;34.08;;;5.10;99.90;;;;;;5030546;28;20083;-44
2020/12/13 10:47:02;;;;;;;91.00;35.40;;;5.10;99.90;;;;;;5031143;28;20108;-46
2020/12/13 10:49:27;;;;;;;93.15;35.42;;;5.10;99.90;;;;;;5030410;28;20447;-43
2020/12/13 10:51:53;;;;;;;90.35;35.25;;;5.10;99.90;;;;;;5031453;28;20108;-46
2020/12/13 10:54:18;;;;;;;88.32;35.05;;;5.10;99.90;;;;;;5031106;28;20031;-46
2020/12/13 10:56:44;;;;;;;85.05;35.45;;;5.10;99.90;;;;;;5030846;28;20030;-46
2020/12/13 10:59:09;;;;;;;92.60;36.03;;;5.20;99.90;;;;;;5031198;28;20034;-47
2020/12/13 11:01:35;;;;;;;81.82;34.10;;;5.20;99.90;;;;;;5031225;28;20515;-45
2020/12/13 11:04:00;;;;;;;90.82;36.47;;;5.20;99.90;;;;;;5029231;28;20036;-45
2020/12/13 11:06:27;;;;;;;80.03;34.15;;;5.20;99.90;;;;;;5030145;28;20060;-48
2020/12/13 11:08:53;;;;;;;93.25;37.22;;;5.20;99.90;;;;;;5030582;28;20064;-49
2020/12/13 11:11:21;;;;;;;90.30;36.33;;;5.30;99.90;;;;;;5030752;28;20025;-47
2020/12/13 11:13:47;;;;;;;84.40;34.72;;;5.30;99.90;;;;;;5031080;28;20104;-49
2020/12/13 11:16:12;;;;;;;86.03;36.45;;;5.30;99.90;;;;;;5030556;28;20136;-48
2020/12/13 11:18:39;;;;;;;83.55;34.90;;;5.40;99.90;;;;;;5030478;28;20471;-48
2020/12/13 11:21:04;;;;;;;89.07;36.45;;;5.40;99.90;;;;;;5029652;28;20327;-48
2020/12/13 11:23:30;;;;;;;83.57;34.88;;;5.40;99.90;;;;;;5030812;28;20033;-46
2020/12/13 11:25:55;;;;;;;83.47;34.83;;;5.40;99.90;;;;;;5029940;28;20025;-45
2020/12/13 11:28:21;;;;;;;74.97;33.42;;;5.50;99.90;;;;;;5030172;28;20167;-46
2020/12/13 11:30:46;;;;;;;81.90;35.00;;;5.40;99.90;;;;;;5030349;28;20490;-45
2020/12/13 11:33:12;;;;;;;82.07;34.65;;;5.40;99.90;;;;;;5032870;28;20243;-49
2020/12/13 11:35:37;;;;;;;72.38;33.78;;;5.50;99.90;;;;;;5043212;28;20112;-47
2020/12/13 11:38:03;;;;;;;78.65;34.67;;;5.50;99.90;;;;;;5050782;28;20504;-48
2020/12/13 11:40:29;;;;;;;80.85;35.58;;;5.50;99.90;;;;;;5050451;28;20026;-43
2020/12/13 11:42:54;;;;;;;72.40;32.88;;;5.50;99.90;;;;;;5050788;28;20047;-47
2020/12/13 11:45:20;;;;;;;83.13;35.28;;;5.50;99.90;;;;;;5048749;28;20056;-44
2020/12/13 11:47:46;;;;;;;82.15;34.35;;;5.50;99.90;;;;;;5048508;28;20029;-47
2020/12/13 11:50:13;;;;;;;73.00;33.80;;;5.50;99.90;;;;;;5049934;28;20029;-47
2020/12/13 11:52:39;;;;;;;87.35;35.08;;;5.50;99.90;;;;;;5050290;28;20191;-47
2020/12/13 11:55:05;;;;;;;87.07;37.90;;;5.50;99.90;;;;;;5049124;28;20024;-49
2020/12/13 11:57:31;;;;;;;74.80;35.47;;;5.60;99.90;;;;;;5049302;28;20029;-48
2020/12/13 11:59:56;;;;;;;73.97;34.42;;;5.50;99.90;;;;;;5050260;28;20079;-47
2020/12/13 12:02:22;;;;;;;78.18;34.60;;;5.60;99.90;;;;;;5050205;28;20032;-46
2020/12/13 12:04:47;;;;;;;78.85;34.33;;;5.60;99.90;;;;;;5042068;28;20022;-47
2020/12/13 12:07:13;;;;;;;78.05;35.67;;;5.60;99.90;;;;;;5029706;28;20072;-49
2020/12/13 12:09:39;;;;;;;81.25;36.63;;;5.60;99.90;;;;;;5029447;28;20436;-45
2020/12/13 12:12:04;;;;;;;78.25;34.45;;;5.60;99.90;;;;;;5028443;28;20022;-44
2020/12/13 12:14:30;;;;;;;83.63;37.30;;;5.60;99.90;;;;;;5035370;28;20082;-44
2020/12/13 12:16:57;;;;;;;72.13;33.65;;;5.60;99.90;;;;;;5035777;28;20076;-44
2020/12/13 12:19:22;;;;;;;78.03;35.10;;;5.60;99.90;;;;;;5029256;28;20571;-45
2020/12/13 12:21:50;;;;;;;77.47;34.72;;;5.60;99.90;;;;;;5030293;28;20036;-48
2020/12/13 12:24:17;;;;;;;75.30;36.20;;;5.60;99.90;;;;;;5029763;28;20045;-47
2020/12/13 12:26:43;;;;;;;80.80;34.75;;;5.70;99.90;;;;;;5029073;28;20025;-44
2020/12/13 12:29:09;;;;;;;67.95;33.25;;;5.70;99.90;;;;;;5029015;28;20099;-44
2020/12/13 12:31:34;;;;;;;78.40;33.33;;;5.70;99.90;;;;;;5029521;28;20033;-44
2020/12/13 12:34:00;;;;;;;73.32;33.60;;;5.80;99.90;;;;;;5028759;28;20021;-47
2020/12/13 12:36:28;;;;;;;71.68;33.75;;;5.80;99.90;;;;;;5035704;28;20032;-47
2020/12/13 12:38:54;;;;;;;74.95;36.28;;;5.90;99.90;;;;;;5029370;28;20109;-44
2020/12/13 12:41:21;;;;;;;68.63;33.53;;;5.90;99.90;;;;;;5029318;28;20487;-46
2020/12/13 12:43:48;;;;;;;68.30;32.75;;;5.90;99.90;;;;;;5029474;28;20041;-47